Time;durP1;ratioP1;P1;durP2;ratioP2;P2;SDS_P1;SDS_P2;PMS_P1;PMS_P2;Temp;Humidity;BMP_temperature;BMP_pressure;BME280_temperature;BME280_humidity;BME280_pressure;Samples;Min_cycle;Max_cycle;Signal;HPM_P1;HPM_P2
2022/12/19 00:00:59;;;;;;;112.47;37.92;;;;;;;;;;5064238;28;20116;-69
2022/12/19 00:03:25;;;;;;;105.28;37.75;;;;;;;;;;5069166;28;20020;-69
2022/12/19 00:05:50;;;;;;;108.27;36.10;;;;;;;;;;5068590;28;20368;-69
2022/12/19 00:08:15;;;;;;;114.73;36.30;;;;;;;;;;5060694;28;20391;-69
2022/12/19 00:10:41;;;;;;;111.38;34.17;;;;;;;;;;5061270;28;20367;-67
2022/12/19 00:13:08;;;;;;;108.75;35.38;;;;;;;;;;5058776;28;20398;-69
2022/12/19 00:15:33;;;;;;;101.65;34.13;;;;;;;;;;5065696;28;20036;-69
2022/12/19 00:17:58;;;;;;;107.88;35.90;;;;;;;;;;5048151;28;20501;-69
2022/12/19 00:20:23;;;;;;;104.43;35.20;;;;;;;;;;5068770;28;20070;-69
2022/12/19 00:22:49;;;;;;;96.67;34.70;;;;;;;;;;5063101;28;20036;-68
2022/12/19 00:25:14;;;;;;;101.33;33.20;;;;;;;;;;5043731;28;20278;-69
2022/12/19 00:27:39;;;;;;;100.73;35.33;;;;;;;;;;5065039;28;20308;-69
2022/12/19 00:30:05;;;;;;;108.03;34.47;;;;;;;;;;5061663;28;20025;-70
2022/12/19 00:32:30;;;;;;;102.43;32.78;;;;;;;;;;5063888;28;20410;-69
2022/12/19 00:34:55;;;;;;;101.53;34.23;;;;;;;;;;5062557;28;20468;-69
2022/12/19 00:37:20;;;;;;;100.00;31.97;;;;;;;;;;5045911;28;20281;-69
2022/12/19 00:39:46;;;;;;;112.17;33.27;;;;;;;;;;5062885;28;20029;-69
2022/12/19 00:42:11;;;;;;;111.40;34.40;;;;;;;;;;5061876;28;20332;-69
2022/12/19 00:44:36;;;;;;;111.00;34.73;;;;;;;;;;5063180;28;20352;-69
2022/12/19 00:47:01;;;;;;;109.30;36.20;;;;;;;;;;5061868;28;20115;-68
2022/12/19 00:49:26;;;;;;;105.10;33.40;;;;;;;;;;5050411;28;20277;-69
2022/12/19 00:51:52;;;;;;;95.93;32.97;;;;;;;;;;5060866;28;20281;-69
2022/12/19 00:54:17;;;;;;;111.80;36.45;;;;;;;;;;5044347;28;20379;-69
2022/12/19 00:56:42;;;;;;;104.55;35.28;;;;;;;;;;5062779;28;20119;-69
2022/12/19 00:59:09;;;;;;;100.33;32.67;;;;;;;;;;5060858;28;20041;-70
2022/12/19 01:01:35;;;;;;;98.28;33.22;;;;;;;;;;5065039;28;20131;-69
2022/12/19 01:04:02;;;;;;;99.43;34.15;;;;;;;;;;5049798;28;20466;-69
2022/12/19 01:06:27;;;;;;;104.43;35.20;;;;;;;;;;5068213;28;20360;-69
2022/12/19 01:08:53;;;;;;;103.78;35.33;;;;;;;;;;5071533;28;20057;-69
2022/12/19 01:12:44;;;;;;;109.07;35.05;;;;;;;;;;5068628;28;20024;-69
2022/12/19 01:14:04;;;;;;;100.78;34.50;;;;;;;;;;5066596;28;20025;-68
2022/12/19 01:16:29;;;;;;;103.88;33.90;;;;;;;;;;5062718;28;20163;-68
2022/12/19 01:18:54;;;;;;;89.90;33.43;;;;;;;;;;5063969;28;20545;-69
2022/12/19 01:21:20;;;;;;;99.00;33.80;;;;;;;;;;5052095;28;20286;-70
2022/12/19 01:23:45;;;;;;;103.63;34.57;;;;;;;;;;5068170;28;20411;-67
2022/12/19 01:26:10;;;;;;;103.82;34.45;;;;;;;;;;5062039;28;20351;-68
2022/12/19 01:28:36;;;;;;;99.87;35.17;;;;;;;;;;5067892;28;20331;-68
2022/12/19 01:31:04;;;;;;;101.07;34.40;;;;;;;;;;5061157;28;20029;-69
2022/12/19 01:33:30;;;;;;;102.50;36.10;;;;;;;;;;5064443;28;20146;-68
2022/12/19 01:35:55;;;;;;;102.90;35.00;;;;;;;;;;5069388;28;20107;-68
2022/12/19 01:38:20;;;;;;;109.60;37.00;;;;;;;;;;5070068;28;20051;-68
2022/12/19 01:40:56;;;;;;;109.70;36.17;;;;;;;;;;5068965;28;20025;-68
2022/12/19 01:43:22;;;;;;;106.35;35.55;;;;;;;;;;5065984;28;20052;-67
2022/12/19 01:45:48;;;;;;;109.05;36.97;;;;;;;;;;5066819;28;20032;-68
2022/12/19 01:48:19;;;;;;;114.82;39.20;;;;;;;;;;5065182;28;20195;-68
2022/12/19 01:51:01;;;;;;;118.03;38.28;;;;;;;;;;5066188;28;20031;-68
2022/12/19 01:53:28;;;;;;;103.53;35.65;;;;;;;;;;5067889;28;20024;-69
2022/12/19 01:55:54;;;;;;;109.15;36.95;;;;;;;;;;5064743;28;20031;-68
2022/12/19 01:58:19;;;;;;;109.10;37.00;;;;;;;;;;5067434;28;20045;-69
2022/12/19 02:00:44;;;;;;;118.90;37.97;;;;;;;;;;5052124;28;20028;-69
2022/12/19 02:03:12;;;;;;;118.32;37.38;;;;;;;;;;5064460;28;20428;-68
2022/12/19 02:05:38;;;;;;;102.97;36.40;;;;;;;;;;5068058;28;20040;-68
2022/12/19 02:08:04;;;;;;;105.20;35.50;;;;;;;;;;5047688;28;20033;-68
2022/12/19 02:10:29;;;;;;;113.40;36.40;;;;;;;;;;5048984;28;20031;-68
2022/12/19 02:12:54;;;;;;;104.95;34.55;;;;;;;;;;5068267;28;20039;-68
2022/12/19 02:15:20;;;;;;;108.43;36.92;;;;;;;;;;5059727;28;20100;-67
2022/12/19 02:17:45;;;;;;;117.63;35.15;;;;;;;;;;5068302;28;20031;-68
2022/12/19 02:20:20;;;;;;;102.40;35.00;;;;;;;;;;5052172;28;20032;-69
2022/12/19 02:23:00;;;;;;;110.88;34.78;;;;;;;;;;5063628;28;20360;-67
2022/12/19 02:25:41;;;;;;;111.47;36.28;;;;;;;;;;5063998;28;20060;-69
2022/12/19 02:28:25;;;;;;;102.57;34.20;;;;;;;;;;5069799;28;20033;-68
2022/12/19 02:31:06;;;;;;;99.82;32.92;;;;;;;;;;5062061;28;20028;-69
2022/12/19 02:33:37;;;;;;;103.00;33.40;;;;;;;;;;5065289;28;20077;-69
2022/12/19 02:36:07;;;;;;;92.63;32.53;;;;;;;;;;5068077;28;20049;-69
2022/12/19 02:39:08;;;;;;;92.20;31.98;;;;;;;;;;5067060;28;20174;-69
2022/12/19 02:41:43;;;;;;;93.63;31.10;;;;;;;;;;4964736;28;20043;-69
2022/12/19 02:44:12;;;;;;;99.50;32.45;;;;;;;;;;4966639;28;20109;-69
2022/12/19 02:46:39;;;;;;;89.22;30.58;;;;;;;;;;4965232;28;20055;-68
2022/12/19 02:49:04;;;;;;;91.60;30.10;;;;;;;;;;4950377;28;20035;-69
2022/12/19 02:51:29;;;;;;;93.32;31.08;;;;;;;;;;4966807;28;20070;-68
2022/12/19 02:53:54;;;;;;;91.80;29.93;;;;;;;;;;4947130;28;20043;-69
2022/12/19 02:56:41;;;;;;;87.00;28.43;;;;;;;;;;4967331;28;20308;-68
2022/12/19 02:59:21;;;;;;;81.30;28.40;;;;;;;;;;4954087;28;20891;-69
2022/12/19 03:01:49;;;;;;;92.93;28.35;;;;;;;;;;4928995;29;20031;-69
2022/12/19 03:04:27;;;;;;;79.28;27.30;;;;;;;;;;4946321;29;20034;-69
2022/12/19 03:06:55;;;;;;;94.70;29.63;;;;;;;;;;4930784;29;20122;-68
2022/12/19 03:09:23;;;;;;;88.25;29.20;;;;;;;;;;4946902;28;20039;-68
2022/12/19 03:11:49;;;;;;;82.53;26.38;;;;;;;;;;4945047;28;20039;-69
2022/12/19 03:14:16;;;;;;;83.18;26.55;;;;;;;;;;4932071;29;20027;-69
2022/12/19 03:16:41;;;;;;;85.85;28.52;;;;;;;;;;5018584;28;20041;-69
2022/12/19 03:19:08;;;;;;;87.78;27.60;;;;;;;;;;5020466;28;20032;-68
2022/12/19 03:21:35;;;;;;;89.72;28.55;;;;;;;;;;5019800;28;20092;-69
2022/12/19 03:24:01;;;;;;;89.05;28.98;;;;;;;;;;5019909;28;20440;-69
2022/12/19 03:26:31;;;;;;;83.80;27.48;;;;;;;;;;5021912;28;20021;-68
2022/12/19 03:29:00;;;;;;;81.65;26.45;;;;;;;;;;5015016;28;20396;-68
2022/12/19 03:31:29;;;;;;;77.55;27.67;;;;;;;;;;5015682;28;20034;-69
2022/12/19 03:33:57;;;;;;;75.00;26.02;;;;;;;;;;5019806;28;20034;-69
2022/12/19 03:36:31;;;;;;;80.30;26.98;;;;;;;;;;5016138;28;20071;-68
2022/12/19 03:38:56;;;;;;;89.75;27.92;;;;;;;;;;5019414;28;20033;-68
2022/12/19 03:43:07;;;;;;;82.90;27.67;;;;;;;;;;5023760;28;20391;-69
2022/12/19 03:44:10;;;;;;;99.50;29.83;;;;;;;;;;5017105;28;20091;-69
2022/12/19 03:46:38;;;;;;;97.78;29.35;;;;;;;;;;5015566;28;20034;-69
2022/12/19 03:49:03;;;;;;;101.97;30.83;;;;;;;;;;5015553;28;20026;-68
2022/12/19 03:51:32;;;;;;;96.45;30.20;;;;;;;;;;5016422;28;20040;-69
2022/12/19 03:54:12;;;;;;;92.80;28.83;;;;;;;;;;5021690;28;20045;-69
2022/12/19 03:56:37;;;;;;;108.78;30.13;;;;;;;;;;5018656;28;20037;-71
2022/12/19 03:59:21;;;;;;;106.07;30.43;;;;;;;;;;5049313;28;20044;-71
2022/12/19 04:01:47;;;;;;;112.43;28.60;;;;;;;;;;5059735;28;20273;-71
2022/12/19 04:04:12;;;;;;;133.55;29.10;;;;;;;;;;5070538;28;20529;-70
2022/12/19 04:06:39;;;;;;;100.18;29.20;;;;;;;;;;5066865;28;20118;-72
2022/12/19 04:09:05;;;;;;;108.47;28.98;;;;;;;;;;5059758;28;20028;-72
2022/12/19 04:11:37;;;;;;;109.65;30.23;;;;;;;;;;5067006;28;20728;-72
2022/12/19 04:14:05;;;;;;;101.43;28.50;;;;;;;;;;5042921;28;20035;-72
2022/12/19 04:16:33;;;;;;;119.20;29.15;;;;;;;;;;5065230;28;20508;-71
2022/12/19 04:19:03;;;;;;;104.13;30.20;;;;;;;;;;5064839;28;21175;-72
2022/12/19 04:21:35;;;;;;;92.45;27.50;;;;;;;;;;5060091;28;20025;-72
2022/12/19 04:24:06;;;;;;;82.43;27.08;;;;;;;;;;5055054;28;20036;-72
2022/12/19 04:26:33;;;;;;;113.15;27.73;;;;;;;;;;5053864;28;20032;-72
2022/12/19 04:29:01;;;;;;;96.63;28.88;;;;;;;;;;5056060;28;20032;-71
2022/12/19 04:31:26;;;;;;;94.15;28.13;;;;;;;;;;5041160;28;20028;-71
2022/12/19 04:33:51;;;;;;;92.38;32.10;;;;;;;;;;5064768;28;20020;-72
2022/12/19 04:36:16;;;;;;;82.77;28.03;;;;;;;;;;5064581;28;20024;-72
2022/12/19 04:38:42;;;;;;;86.75;29.08;;;;;;;;;;5076580;28;20330;-72
2022/12/19 04:41:07;;;;;;;90.07;28.83;;;;;;;;;;5067573;28;20494;-72
2022/12/19 04:43:32;;;;;;;342.70;89.13;;;;;;;;;;5053716;28;20285;-72
2022/12/19 04:45:58;;;;;;;1999.90;928.80;;;;;;;;;;5068843;28;20494;-72
2022/12/19 04:48:23;;;;;;;144.93;36.47;;;;;;;;;;5074119;28;20016;-72
2022/12/19 04:50:48;;;;;;;191.43;40.78;;;;;;;;;;5071315;28;20288;-71
2022/12/19 04:53:14;;;;;;;126.27;38.07;;;;;;;;;;5073003;28;20162;-71
2022/12/19 04:55:40;;;;;;;113.87;37.03;;;;;;;;;;5053579;28;20285;-70
2022/12/19 04:58:05;;;;;;;108.35;34.25;;;;;;;;;;5070962;28;20989;-72
2022/12/19 05:00:31;;;;;;;95.38;30.83;;;;;;;;;;5074674;28;20390;-71
2022/12/19 05:02:56;;;;;;;92.22;29.77;;;;;;;;;;5071272;28;20085;-71
2022/12/19 05:05:21;;;;;;;86.10;29.93;;;;;;;;;;5062807;28;20027;-72
2022/12/19 05:07:47;;;;;;;76.70;27.90;;;;;;;;;;5064924;28;20301;-72
2022/12/19 05:10:12;;;;;;;74.70;27.67;;;;;;;;;;5054800;28;20303;-72
2022/12/19 05:12:37;;;;;;;78.80;27.52;;;;;;;;;;5067613;28;20055;-71
2022/12/19 05:15:03;;;;;;;87.70;28.67;;;;;;;;;;5070714;28;20492;-71
2022/12/19 05:17:28;;;;;;;83.65;27.60;;;;;;;;;;5069051;28;20277;-72
2022/12/19 05:19:54;;;;;;;90.73;26.87;;;;;;;;;;5071468;28;20048;-72
2022/12/19 05:22:19;;;;;;;93.70;28.57;;;;;;;;;;5054180;28;20055;-72
2022/12/19 05:24:44;;;;;;;89.77;26.57;;;;;;;;;;5065473;28;20277;-72
2022/12/19 05:27:09;;;;;;;111.80;28.20;;;;;;;;;;5049477;28;20273;-72
2022/12/19 05:29:35;;;;;;;119.17;27.23;;;;;;;;;;5064604;28;20280;-72
2022/12/19 05:32:00;;;;;;;93.10;28.13;;;;;;;;;;5050817;28;20028;-72
2022/12/19 05:34:25;;;;;;;82.65;28.00;;;;;;;;;;5071411;28;20032;-72
2022/12/19 05:36:50;;;;;;;86.13;28.97;;;;;;;;;;5056647;28;20032;-72
2022/12/19 05:39:16;;;;;;;82.00;28.43;;;;;;;;;;5069121;28;20355;-71
2022/12/19 05:41:41;;;;;;;81.90;29.57;;;;;;;;;;5065847;28;20635;-73
2022/12/19 05:44:08;;;;;;;76.35;27.50;;;;;;;;;;5045113;28;20282;-70
2022/12/19 05:46:33;;;;;;;82.97;29.48;;;;;;;;;;5067739;28;20024;-72
2022/12/19 05:48:58;;;;;;;88.10;28.73;;;;;;;;;;5067376;28;20032;-72
2022/12/19 05:51:24;;;;;;;87.00;31.13;;;;;;;;;;5069258;28;20291;-70
2022/12/19 05:53:49;;;;;;;80.70;28.88;;;;;;;;;;5032250;28;20273;-72
2022/12/19 05:56:18;;;;;;;79.70;27.85;;;;;;;;;;5054000;28;20026;-70
2022/12/19 05:58:44;;;;;;;83.13;27.98;;;;;;;;;;5056680;28;20048;-72
2022/12/19 06:01:14;;;;;;;82.00;28.60;;;;;;;;;;5067955;28;20387;-71
2022/12/19 06:03:40;;;;;;;76.70;28.30;;;;;;;;;;5066562;28;20033;-72
2022/12/19 06:06:07;;;;;;;74.45;27.70;;;;;;;;;;5064158;28;20031;-70
2022/12/19 06:08:33;;;;;;;86.20;29.15;;;;;;;;;;5064503;28;20115;-72
2022/12/19 06:10:59;;;;;;;83.07;27.58;;;;;;;;;;5063715;28;20108;-72
2022/12/19 06:13:25;;;;;;;81.70;29.75;;;;;;;;;;5063719;28;20102;-73
2022/12/19 06:15:55;;;;;;;84.50;28.90;;;;;;;;;;5048645;28;20479;-74
2022/12/19 06:18:20;;;;;;;85.13;29.00;;;;;;;;;;5068737;28;20056;-72
2022/12/19 06:20:54;;;;;;;83.15;28.33;;;;;;;;;;5066600;28;20070;-71
2022/12/19 06:23:19;;;;;;;83.40;27.27;;;;;;;;;;5064336;28;20390;-69
2022/12/19 06:25:44;;;;;;;83.57;27.50;;;;;;;;;;5069853;28;20035;-72
2022/12/19 06:28:09;;;;;;;65.10;25.17;;;;;;;;;;5066535;28;20631;-72
2022/12/19 06:30:37;;;;;;;68.43;23.73;;;;;;;;;;5061590;28;20361;-69
2022/12/19 06:33:03;;;;;;;65.55;25.05;;;;;;;;;;5051435;28;20316;-72
2022/12/19 06:35:28;;;;;;;71.00;24.92;;;;;;;;;;5069313;28;20051;-69
2022/12/19 06:37:53;;;;;;;69.23;24.17;;;;;;;;;;5064332;28;20027;-71
2022/12/19 06:42:21;;;;;;;68.67;25.53;;;;;;;;;;5070325;28;20044;-71
2022/12/19 06:43:04;;;;;;;70.78;25.25;;;;;;;;;;5068368;28;20024;-70
2022/12/19 06:45:30;;;;;;;74.07;24.77;;;;;;;;;;5064458;28;20582;-70
2022/12/19 06:47:55;;;;;;;80.60;27.65;;;;;;;;;;5061530;28;20335;-71
2022/12/19 06:50:20;;;;;;;71.63;25.92;;;;;;;;;;5067732;28;20491;-73
2022/12/19 06:52:46;;;;;;;72.22;25.70;;;;;;;;;;5067598;28;20028;-72
2022/12/19 06:55:11;;;;;;;67.00;24.55;;;;;;;;;;5059815;28;20028;-72
2022/12/19 06:57:44;;;;;;;77.00;26.50;;;;;;;;;;5066104;28;20033;-72
2022/12/19 07:00:09;;;;;;;77.32;27.60;;;;;;;;;;5064135;28;20268;-72
2022/12/19 07:02:35;;;;;;;75.43;27.60;;;;;;;;;;5049156;28;20120;-72
2022/12/19 07:05:01;;;;;;;82.10;28.80;;;;;;;;;;5066300;28;20483;-71
2022/12/19 07:07:27;;;;;;;78.25;27.40;;;;;;;;;;5065061;28;20663;-68
2022/12/19 07:09:52;;;;;;;84.22;26.77;;;;;;;;;;5061713;28;20025;-71
2022/12/19 07:12:18;;;;;;;81.80;26.77;;;;;;;;;;5062400;28;20020;-69
2022/12/19 07:14:43;;;;;;;72.45;26.52;;;;;;;;;;5047103;28;20392;-69
2022/12/19 07:17:08;;;;;;;77.85;26.35;;;;;;;;;;5065900;28;20021;-68
2022/12/19 07:19:34;;;;;;;76.40;26.70;;;;;;;;;;5046648;28;20028;-69
2022/12/19 07:22:00;;;;;;;77.20;26.02;;;;;;;;;;5049186;28;20060;-71
2022/12/19 07:24:26;;;;;;;75.78;26.67;;;;;;;;;;5066480;28;20401;-73
2022/12/19 07:26:51;;;;;;;73.93;26.90;;;;;;;;;;5045703;28;20032;-72
2022/12/19 07:29:16;;;;;;;82.47;28.20;;;;;;;;;;5049995;28;20128;-72
2022/12/19 07:31:41;;;;;;;71.90;25.83;;;;;;;;;;5045019;28;20274;-73
2022/12/19 07:34:07;;;;;;;85.15;26.65;;;;;;;;;;5068520;28;20032;-68
2022/12/19 07:36:32;;;;;;;78.00;27.88;;;;;;;;;;5066181;28;20507;-72
2022/12/19 07:38:57;;;;;;;85.80;28.20;;;;;;;;;;5062014;28;20052;-72
2022/12/19 07:41:22;;;;;;;91.00;30.75;;;;;;;;;;5050488;28;20027;-72
2022/12/19 07:43:48;;;;;;;88.90;30.83;;;;;;;;;;5063830;28;20035;-72
2022/12/19 07:46:13;;;;;;;93.82;31.50;;;;;;;;;;5051882;28;20020;-72
2022/12/19 07:48:38;;;;;;;89.10;30.77;;;;;;;;;;5043530;28;20025;-71
2022/12/19 07:51:04;;;;;;;84.50;30.03;;;;;;;;;;5064621;28;20086;-69
2022/12/19 07:53:29;;;;;;;79.75;27.73;;;;;;;;;;5048005;28;20273;-70
2022/12/19 07:55:55;;;;;;;83.88;29.10;;;;;;;;;;5067076;28;20032;-70
2022/12/19 07:58:20;;;;;;;75.97;27.13;;;;;;;;;;5059686;28;20048;-72
2022/12/19 08:00:52;;;;;;;76.93;25.85;;;;;;;;;;5057648;28;20273;-70
2022/12/19 08:03:17;;;;;;;84.03;27.23;;;;;;;;;;5042262;28;20025;-69
2022/12/19 08:05:42;;;;;;;85.00;27.10;;;;;;;;;;5062707;28;20438;-68
2022/12/19 08:08:08;;;;;;;75.53;27.17;;;;;;;;;;5043615;28;20433;-72
2022/12/19 08:10:34;;;;;;;76.10;27.10;;;;;;;;;;5058605;28;20286;-69
2022/12/19 08:12:59;;;;;;;85.20;27.87;;;;;;;;;;5062058;28;20035;-69
2022/12/19 08:15:24;;;;;;;71.55;25.35;;;;;;;;;;5044003;28;20771;-70
2022/12/19 08:17:50;;;;;;;69.63;26.38;;;;;;;;;;5046955;28;20399;-70
2022/12/19 08:20:15;;;;;;;67.67;25.50;;;;;;;;;;5068242;28;20466;-69
2022/12/19 08:22:40;;;;;;;73.78;25.42;;;;;;;;;;5063890;28;20308;-70
2022/12/19 08:25:06;;;;;;;74.03;26.57;;;;;;;;;;5061920;28;20079;-71
2022/12/19 08:27:31;;;;;;;75.70;26.35;;;;;;;;;;5040314;28;20281;-70
2022/12/19 08:29:56;;;;;;;69.73;25.97;;;;;;;;;;5056174;28;20032;-71
2022/12/19 08:32:22;;;;;;;71.93;26.17;;;;;;;;;;5060423;28;20013;-72
2022/12/19 08:34:48;;;;;;;75.20;25.60;;;;;;;;;;5062117;28;20281;-71
2022/12/19 08:37:13;;;;;;;77.32;26.90;;;;;;;;;;5047648;28;20323;-71
2022/12/19 08:39:38;;;;;;;73.68;26.27;;;;;;;;;;5043375;28;20048;-70
2022/12/19 08:42:04;;;;;;;69.40;24.77;;;;;;;;;;5057227;28;20617;-70
2022/12/19 08:44:29;;;;;;;77.95;26.10;;;;;;;;;;5048966;28;20039;-72
2022/12/19 08:46:54;;;;;;;73.00;25.43;;;;;;;;;;5060718;28;20020;-69
2022/12/19 08:49:19;;;;;;;70.73;25.20;;;;;;;;;;5047664;28;20288;-71
2022/12/19 08:51:45;;;;;;;76.57;28.00;;;;;;;;;;5064895;28;20786;-71
2022/12/19 08:54:11;;;;;;;72.18;26.05;;;;;;;;;;5065644;28;20016;-71
2022/12/19 08:56:36;;;;;;;65.13;22.92;;;;;;;;;;5061757;28;20074;-71
2022/12/19 08:59:01;;;;;;;67.43;25.60;;;;;;;;;;5045391;28;20053;-70
2022/12/19 09:01:26;;;;;;;68.87;24.27;;;;;;;;;;5046191;28;20047;-71
2022/12/19 09:03:52;;;;;;;62.33;22.47;;;;;;;;;;5046545;28;20029;-71
2022/12/19 09:06:17;;;;;;;66.07;22.98;;;;;;;;;;5045431;28;20278;-72
2022/12/19 09:08:42;;;;;;;67.63;23.07;;;;;;;;;;5044887;28;20029;-70
2022/12/19 09:11:13;;;;;;;62.97;23.07;;;;;;;;;;5044068;28;20289;-71
2022/12/19 09:13:38;;;;;;;62.47;23.10;;;;;;;;;;5041518;28;20035;-69
2022/12/19 09:16:06;;;;;;;65.53;22.15;;;;;;;;;;5041885;28;20029;-70
2022/12/19 09:18:32;;;;;;;71.38;24.33;;;;;;;;;;5044522;28;20087;-71
2022/12/19 09:20:57;;;;;;;67.60;24.80;;;;;;;;;;5041607;28;20418;-71
2022/12/19 09:23:25;;;;;;;59.85;22.88;;;;;;;;;;5046786;28;20029;-70
2022/12/19 09:25:51;;;;;;;66.40;24.30;;;;;;;;;;5043580;28;20033;-71
2022/12/19 09:28:16;;;;;;;58.25;22.48;;;;;;;;;;5045063;28;20040;-70
2022/12/19 09:30:41;;;;;;;63.33;22.30;;;;;;;;;;5042434;28;20029;-71
2022/12/19 09:33:07;;;;;;;62.30;22.87;;;;;;;;;;5045931;28;20700;-69
2022/12/19 09:35:32;;;;;;;58.47;22.23;;;;;;;;;;5045234;28;20266;-71
2022/12/19 09:37:58;;;;;;;62.53;23.80;;;;;;;;;;5039998;28;20044;-69
2022/12/19 09:40:24;;;;;;;63.65;23.38;;;;;;;;;;5048968;28;20286;-72
2022/12/19 09:42:55;;;;;;;66.57;23.27;;;;;;;;;;5047660;28;20033;-71
2022/12/19 09:45:27;;;;;;;61.30;22.92;;;;;;;;;;5041050;28;20079;-71
2022/12/19 09:47:56;;;;;;;61.60;22.75;;;;;;;-0.78;nan;102837.91;5047159;28;20032;-71
2022/12/19 09:50:34;;;;;;;65.18;22.63;;;;;;;;;;5046480;28;20032;-72
2022/12/19 09:53:01;;;;;;;58.97;24.33;;;;;;;;;;5041363;28;20055;-72
2022/12/19 09:55:30;;;;;;;60.10;23.30;;;;;;;;;;5043632;28;20025;-71
2022/12/19 09:57:58;;;;;;;64.50;24.13;;;;;;;;;;5048091;28;20549;-72
2022/12/19 10:00:26;;;;;;;62.88;24.10;;;;;;;;;;5071017;28;20024;-71
2022/12/19 10:02:51;;;;;;;61.17;24.33;;;;;;;;;;5068745;28;20024;-72
2022/12/19 10:05:36;;;;;;;65.73;24.20;;;;;;;;;;5064511;28;20691;-72
2022/12/19 10:08:02;;;;;;;62.38;23.30;;;;;;;;;;4999136;28;20047;-72
2022/12/19 10:10:38;;;;;;;65.30;23.08;;;;;;;;;;5063865;28;20029;-71
2022/12/19 10:13:18;;;;;;;62.75;23.85;;;;;;;;;;5066580;28;20048;-72
2022/12/19 10:16:02;;;;;;;67.97;23.38;;;;;;;;;;5066183;28;20942;-71
2022/12/19 10:18:48;;;;;;;61.72;23.02;;;;;;;;;;5067606;28;20024;-71
2022/12/19 10:21:32;;;;;;;67.47;24.88;;;;;;;;;;5066193;28;20435;-71
2022/12/19 10:23:58;;;;;;;63.15;24.20;;;;;;;;;;5067676;28;20020;-72
2022/12/19 10:26:35;;;;;;;54.00;22.90;;;;;;;;;;5065089;28;20039;-71
2022/12/19 10:29:13;;;;;;;61.15;24.75;;;;;;;;;;5065747;28;20690;-74
2022/12/19 10:31:43;;;;;;;59.78;23.75;;;;;;;;;;5062566;28;20028;-72
2022/12/19 10:34:18;;;;;;;59.80;23.02;;;;;;;;;;5047544;28;20037;-73
2022/12/19 10:36:44;;;;;;;58.20;22.25;;;;;;;;;;5067796;28;20061;-72
2022/12/19 10:39:42;;;;;;;52.58;21.20;;;;;;;;;;5056303;28;20033;-72
2022/12/19 10:42:26;;;;;;;61.88;24.15;;;;;;;;;;5021003;28;20128;-72
2022/12/19 10:44:52;;;;;;;65.07;23.88;;;;;;;;;;5065461;28;20021;-72
2022/12/19 10:47:18;;;;;;;66.22;25.15;;;;;;;0.45;nan;102806.19;5067947;28;20389;-73
2022/12/19 10:49:43;;;;;;;65.00;23.65;;;;;;;0.49;nan;102810.28;5063592;28;20081;-74
2022/12/19 10:52:10;;;;;;;73.75;24.15;;;;;;;0.57;nan;102806.22;5065338;28;20055;-74
2022/12/19 10:54:37;;;;;;;58.85;23.90;;;;;;;0.62;nan;102806.78;5064409;28;20029;-73
2022/12/19 10:57:18;;;;;;;64.50;24.05;;;;;;;0.63;nan;102795.47;5050156;28;20032;-72
2022/12/19 11:00:05;;;;;;;56.83;22.98;;;;;;;0.62;nan;102799.00;5041741;28;20072;-72
2022/12/19 11:02:39;;;;;;;95.22;31.65;;;;;;;0.82;nan;102796.88;5051777;28;20394;-72
2022/12/19 11:05:18;;;;;;;70.03;27.98;;;;;;;0.84;nan;102784.63;5052366;28;20024;-71
2022/12/19 11:08:02;;;;;;;83.72;34.42;;;;;;;1.13;nan;102800.84;5045317;28;20031;-73
2022/12/19 11:10:39;;;;;;;73.85;29.38;;;;;;;1.40;nan;102805.91;5064078;28;20104;-72
2022/12/19 11:13:34;;;;;;;72.70;27.67;;;;;;;1.49;nan;102802.69;5049940;28;20077;-72
2022/12/19 11:16:02;;;;;;;77.53;26.52;;;;;;;1.49;nan;102792.28;5040863;28;20033;-73
2022/12/19 11:18:48;;;;;;;61.55;25.15;;;;;;;1.65;nan;102799.84;5061652;28;20187;-72
2022/12/19 11:21:18;;;;;;;58.35;23.30;;;;;;;1.54;nan;102802.38;5043508;28;20440;-71
2022/12/19 11:23:52;;;;;;;63.53;24.02;;;;;;;1.52;nan;102791.25;5051316;28;20481;-73
2022/12/19 11:26:30;;;;;;;65.57;25.33;;;;;;;1.60;nan;102783.75;5062761;28;20364;-73
2022/12/19 11:29:02;;;;;;;65.50;26.63;;;;;;;1.68;nan;102771.06;5066451;28;20041;-72
2022/12/19 11:31:28;;;;;;;60.47;25.05;;;;;;;1.66;nan;102759.13;5066406;28;20024;-71
2022/12/19 11:34:02;;;;;;;62.47;24.60;;;;;;;1.79;nan;102772.88;5050546;28;20027;-73
2022/12/19 11:36:35;;;;;;;57.78;24.10;;;;;;;1.79;nan;102770.28;5058281;28;20025;-73
2022/12/19 11:39:03;;;;;;;55.60;22.98;;;;;;;1.68;nan;102742.50;5062212;28;20486;-72
2022/12/19 11:41:32;;;;;;;59.38;24.95;;;;;;;1.90;nan;102752.19;5068611;28;20089;-74
2022/12/19 11:44:21;;;;;;;59.67;23.65;;;;;;;1.90;nan;102753.97;5063717;28;20032;-73
2022/12/19 11:46:55;;;;;;;57.67;23.57;;;;;;;1.84;nan;102741.41;5034767;28;20045;-74
2022/12/19 11:49:33;;;;;;;61.78;22.05;;;;;;;1.80;nan;102725.22;5061098;28;20035;-74
2022/12/19 11:52:22;;;;;;;56.38;23.83;;;;;;;1.88;nan;102735.88;5062572;28;20097;-72
2022/12/19 11:54:50;;;;;;;55.13;22.53;;;;;;;1.88;nan;102733.28;5056693;28;20056;-72
2022/12/19 11:57:15;;;;;;;58.15;21.88;;;;;;;1.80;nan;102722.63;5062219;28;20041;-74
2022/12/19 11:59:41;;;;;;;54.05;23.05;;;;;;;1.74;nan;102724.81;5066904;28;20045;-74
2022/12/19 12:02:15;;;;;;;51.33;23.30;;;;;;;1.89;nan;102731.50;5064604;28;20446;-74
2022/12/19 12:05:02;;;;;;;54.13;23.10;;;;;;;1.98;nan;102735.22;5049294;28;20043;-74
2022/12/19 12:07:38;;;;;;;54.42;22.55;;;;;;;1.87;nan;102718.63;5066495;28;20470;-74
2022/12/19 12:10:24;;;;;;;52.40;22.20;;;;;;;2.02;nan;102745.28;5063537;28;20685;-74
2022/12/19 12:13:09;;;;;;;54.22;22.02;;;;;;;2.05;nan;102749.44;5043551;28;20820;-73
2022/12/19 12:15:46;;;;;;;50.47;21.70;;;;;;;2.08;nan;102751.78;5066726;28;20040;-72
2022/12/19 12:18:24;;;;;;;51.30;21.42;;;;;;;2.09;nan;102738.69;5044268;28;20399;-72
2022/12/19 12:21:05;;;;;;;55.05;22.48;;;;;;;2.18;nan;102750.22;5063436;28;20020;-72
2022/12/19 12:23:58;;;;;;;48.50;21.33;;;;;;;2.22;nan;102750.81;5064726;28;21569;-73
2022/12/19 12:26:30;;;;;;;47.22;21.00;;;;;;;2.03;nan;102733.09;5064082;28;20181;-73
2022/12/19 12:29:05;;;;;;;48.63;19.48;;;;;;;2.12;nan;102735.03;5060891;28;20025;-73
2022/12/19 12:32:07;;;;;;;54.97;21.63;;;;;;;2.02;nan;102734.06;5064346;28;20028;-72
2022/12/19 12:34:41;;;;;;;54.75;21.15;;;;;;;2.09;nan;102730.91;5069357;28;20437;-72
2022/12/19 12:37:12;;;;;;;48.00;21.58;;;;;;;2.10;nan;102729.94;5060774;28;20106;-73
2022/12/19 12:40:04;;;;;;;50.30;20.88;;;;;;;2.19;nan;102718.06;5051922;28;20091;-72
2022/12/19 12:42:58;;;;;;;44.60;20.15;;;;;;;2.23;nan;102716.91;5066114;28;20025;-72
2022/12/19 12:45:33;;;;;;;49.58;20.90;;;;;;;2.29;nan;102720.81;5066306;28;20093;-74
2022/12/19 12:47:59;;;;;;;49.25;21.20;;;;;;;2.37;nan;102709.84;5065247;28;20435;-72
2022/12/19 12:50:26;;;;;;;50.53;21.90;;;;;;;2.38;nan;102714.13;5065775;28;20074;-72
2022/12/19 12:52:55;;;;;;;51.75;21.40;;;;;;;2.38;nan;102708.91;5059992;28;20036;-72
2022/12/19 12:55:41;;;;;;;49.72;19.27;;;;;;;2.32;nan;102700.63;5065957;28;20066;-73
2022/12/19 12:58:40;;;;;;;44.60;18.63;;;;;;;2.36;nan;102703.00;5069895;28;20127;-71
2022/12/19 13:01:15;;;;;;;;;;;;;;;2.35;nan;102704.78;5051758;28;20513;-72
2022/12/19 13:03:42;;;;;;;43.35;17.63;;;;;;;2.37;nan;102707.25;5068293;28;19916;-72
2022/12/19 13:06:24;;;;;;;54.90;20.65;;;;;;;2.11;nan;102661.44;5048778;28;20033;-74
2022/12/19 13:09:00;;;;;;;46.38;18.45;;;;;;;2.37;nan;102687.28;5064493;28;20051;-72
2022/12/19 13:14:34;;;;;;;41.72;18.17;;;;;;;2.28;nan;102686.19;5067900;28;20497;-73
2022/12/19 13:17:10;;;;;;;46.78;19.60;;;;;;;2.21;nan;102692.78;5066403;28;20025;-73
2022/12/19 13:19:55;;;;;;;44.50;20.25;;;;;;;2.21;nan;102692.78;5049126;28;20486;-73
2022/12/19 13:22:41;;;;;;;42.38;17.75;;;;;;;2.18;nan;102676.56;5067422;28;20024;-73
2022/12/19 13:25:39;;;;;;;43.70;18.08;;;;;;;2.20;nan;102680.72;5066604;28;20028;-73
2022/12/19 13:28:35;;;;;;;43.80;17.85;;;;;;;2.18;nan;102692.16;4989838;28;20042;-71
2022/12/19 13:31:00;;;;;;;43.88;19.08;;;;;;;2.24;nan;102684.75;4985181;28;20038;-74
2022/12/19 13:33:44;;;;;;;44.90;18.55;;;;;;;2.08;nan;102677.28;4988581;28;20037;-73
2022/12/19 13:36:47;;;;;;;40.25;15.98;;;;;;;2.15;nan;102690.63;4990232;28;20030;-73
2022/12/19 13:39:36;;;;;;;39.50;16.50;;;;;;;2.12;nan;102690.88;4988661;28;20037;-73
2022/12/19 13:44:55;;;;;;;45.50;17.17;;;;;;;2.03;nan;102668.13;4984930;28;20255;-74
2022/12/19 13:47:21;;;;;;;41.35;16.77;;;;;;;2.00;nan;102684.78;4969689;28;20436;-72
2022/12/19 13:49:48;;;;;;;40.55;15.82;;;;;;;1.97;nan;102663.41;4972473;28;20486;-72
2022/12/19 13:52:14;;;;;;;40.10;16.48;;;;;;;2.01;nan;102657.03;4986149;28;20034;-73
2022/12/19 13:54:50;;;;;;;40.90;16.98;;;;;;;2.00;nan;102657.97;4988300;28;20100;-73